Sandestin, Florida
Current Conditions -  °F | °C
As of 12:53 AM on Thursday 18 Dec 2014 (Local Time) from KDTS Reporting Station
Clear Clear  
Wind Chill: 50°   Ceiling: Unl
Heat Index: 50°   Visibility: 10mi
Dew Point: 43°   Wind: 6mph
Humidity: 77%   Direction: 360°N
Pressure: 30.17"   Gusts: NA
Location:  30.3738°N, 86.3602°W
Report Text: KDTS 180653Z AUTO 36005KT 10SM CLR 10/06 A3017 RMK AO2 SLP217 T01000061 TSNO
Loading
Personal Weather Stations






























Interactive Weather Map New forecast layout! Learn more

10-Day Weather Forecast

Advertisements
Track Severe Weather on mobile